Latest Weather Observations for Hay Point

IDQ60801

Issued at 7:32 pm EST Monday 4 May 2015 (issued every 30 minutes, with the page automatically refreshed every 10 minutes)

About weather observations | Map of weather stations | Latest weather observations for QLD | Other Formats
Station Details ID: 033317 Name: HAY POINT Lat: -21.29 Lon: 149.30 Height: 7.0 m
Data from the previous 72 hours. | See also: Recent months for locations in Queensland
Date/Time
EST
Temp
°C
App
Temp
°C
Dew
Point
Rel
Hum
%
Delta-T
°C
Wind Press
QNH
hPa
Press
MSL
hPa
Rain
since 9 am
mm
Dir
 
Spd
km/h
Gust
km/h
Spd
kts
Gust
kts
04/07:30pm - - - - - NW 2 9 1 5 - - -
04/07:00pm - - - - - NNE 4 9 2 5 - - -
04/06:30pm - - - - - NE 9 11 5 6 - - -
04/06:00pm - - - - - NE 13 15 7 8 - - -
04/05:30pm - - - - - NE 15 17 8 9 - - -
04/05:00pm - - - - - ENE 19 20 10 11 - - -
04/04:30pm - - - - - NE 19 22 10 12 - - -
04/04:00pm - - - - - NE 20 22 11 12 - - -
04/03:30pm - - - - - NE 19 20 10 11 - - -
04/03:00pm - - - - - NE 15 17 8 9 - - -
04/02:30pm - - - - - ENE 13 15 7 8 - - -
04/02:00pm - - - - - ENE 15 17 8 9 - - -
04/01:30pm - - - - - ENE 13 15 7 8 - - -
04/01:00pm - - - - - E 13 15 7 8 - - -
04/12:30pm - - - - - ESE 13 15 7 8 - - -
04/12:00pm - - - - - ESE 11 13 6 7 - - -
04/11:30am - - - - - ENE 9 11 5 6 - - -
04/11:00am - - - - - E 9 9 5 5 - - -
04/10:30am - - - - - E 7 9 4 5 - - -
04/10:00am - - - - - E 7 9 4 5 - - -
04/09:30am - - - - - CALM 0 0 0 0 - - -
04/09:00am - - - - - WSW 6 9 3 5 - - -
04/08:30am - - - - - WSW 9 11 5 6 - - -
04/08:00am - - - - - WNW 6 7 3 4 - - -
04/07:30am - - - - - W 7 9 4 5 - - -
04/07:00am - - - - - W 9 11 5 6 - - -
04/06:30am - - - - - WSW 7 9 4 5 - - -
04/06:00am - - - - - W 9 11 5 6 - - -
04/05:30am - - - - - WNW 6 9 3 5 - - -
04/05:00am - - - - - WNW 7 11 4 6 - - -
04/04:30am - - - - - W 13 17 7 9 - - -
04/04:00am - - - - - W 9 13 5 7 - - -
04/03:30am - - - - - W 15 17 8 9 - - -
04/03:00am - - - - - W 17 19 9 10 - - -
04/02:30am - - - - - W 17 19 9 10 - - -
04/02:00am - - - - - W 15 17 8 9 - - -
04/01:30am - - - - - SW 15 17 8 9 - - -
04/01:00am - - - - - SW 9 11 5 6 - - -
04/12:30am - - - - - SW 7 9 4 5 - - -
04/12:00am - - - - - SW 9 11 5 6 - - -
 
Date/Time
EST
Temp
°C
App
Temp
°C
Dew
Point
Rel
Hum
%
Delta-T
°C
Wind Press
QNH
hPa
Press
MSL
hPa
Rain
since 9 am
mm
Dir
 
Spd
km/h
Gust
km/h
Spd
kts
Gust
kts
03/11:30pm - - - - - SW 9 11 5 6 - - -
03/11:00pm - - - - - SW 13 15 7 8 - - -
03/10:30pm - - - - - SW 13 15 7 8 - - -
03/10:00pm - - - - - SW 13 15 7 8 - - -
03/09:30pm - - - - - SW 9 13 5 7 - - -
03/09:00pm - - - - - SW 9 11 5 6 - - -
03/08:30pm - - - - - SSW 9 11 5 6 - - -
03/08:00pm - - - - - SSW 7 9 4 5 - - -
03/07:30pm - - - - - SSE 9 11 5 6 - - -
03/07:00pm - - - - - SE 9 11 5 6 - - -
03/06:30pm - - - - - ESE 13 15 7 8 - - -
03/06:00pm - - - - - E 13 15 7 8 - - -
03/05:30pm - - - - - E 15 17 8 9 - - -
03/05:00pm - - - - - E 17 20 9 11 - - -
03/04:30pm - - - - - E 20 22 11 12 - - -
03/04:00pm - - - - - ESE 20 24 11 13 - - -
03/03:30pm - - - - - E 20 26 11 14 - - -
03/03:00pm - - - - - E 19 22 10 12 - - -
03/02:30pm - - - - - E 20 24 11 13 - - -
03/02:00pm - - - - - E 20 24 11 13 - - -
03/01:30pm - - - - - E 20 24 11 13 - - -
03/01:00pm - - - - - E 17 20 9 11 - - -
03/12:30pm - - - - - E 19 20 10 11 - - -
03/12:00pm - - - - - E 19 20 10 11 - - -
03/11:30am - - - - - ESE 17 19 9 10 - - -
03/11:00am - - - - - SE 15 19 8 10 - - -
03/10:30am - - - - - ESE 13 15 7 8 - - -
03/10:00am - - - - - SE 11 13 6 7 - - -
03/09:30am - - - - - SW 9 13 5 7 - - -
03/09:00am - - - - - SW 9 11 5 6 - - -
03/08:30am - - - - - SW 7 9 4 5 - - -
03/08:00am - - - - - WSW 9 11 5 6 - - -
03/07:30am - - - - - WSW 13 17 7 9 - - -
03/07:00am - - - - - WSW 11 13 6 7 - - -
03/06:30am - - - - - WSW 13 17 7 9 - - -
03/06:00am - - - - - WSW 13 15 7 8 - - -
03/05:30am - - - - - W 9 11 5 6 - - -
03/05:00am - - - - - WSW 6 7 3 4 - - -
03/04:30am - - - - - SW 9 9 5 5 - - -
03/04:00am - - - - - SW 11 13 6 7 - - -
03/03:30am - - - - - SW 11 13 6 7 - - -
03/03:00am - - - - - WSW 13 15 7 8 - - -
03/02:30am - - - - - WSW 11 13 6 7 - - -
03/02:00am - - - - - WSW 11 13 6 7 - - -
03/01:30am - - - - - SW 9 11 5 6 - - -
03/01:00am - - - - - WSW 11 13 6 7 - - -
03/12:30am - - - - - WSW 7 9 4 5 - - -
03/12:00am - - - - - WSW 9 11 5 6 - - -
 
Date/Time
EST
Temp
°C
App
Temp
°C
Dew
Point
Rel
Hum
%
Delta-T
°C
Wind Press
QNH
hPa
Press
MSL
hPa
Rain
since 9 am
mm
Dir
 
Spd
km/h
Gust
km/h
Spd
kts
Gust
kts
02/11:30pm - - - - - WSW 7 9 4 5 - - -
02/11:00pm - - - - - WSW 7 9 4 5 - - -
02/10:30pm - - - - - WSW 9 11 5 6 - - -
02/10:00pm - - - - - W 9 9 5 5 - - -
02/09:30pm - - - - - WSW 11 13 6 7 - - -
02/09:00pm - - - - - CALM 0 0 0 0 - - -
02/08:30pm - - - - - N 7 9 4 5 - - -
02/08:00pm - - - - - NNE 9 13 5 7 - - -
02/07:30pm - - - - - NE 13 15 7 8 - - -
02/07:00pm - - - - - NE 13 15 7 8 - - -
02/06:30pm - - - - - NE 17 19 9 10 - - -
02/06:00pm - - - - - NE 17 20 9 11 - - -
02/05:30pm - - - - - NE 13 17 7 9 - - -
02/05:00pm - - - - - NE 17 19 9 10 - - -
02/04:30pm - - - - - NE 19 22 10 12 - - -
02/04:00pm - - - - - E 17 19 9 10 - - -
02/03:30pm - - - - - E 19 22 10 12 - - -
02/03:00pm - - - - - E 19 22 10 12 - - -
02/02:30pm - - - - - E 19 20 10 11 - - -
02/02:00pm - - - - - ENE 20 22 11 12 - - -
02/01:30pm - - - - - ENE 17 20 9 11 - - -
02/01:00pm - - - - - E 15 17 8 9 - - -
02/12:30pm - - - - - ENE 15 19 8 10 - - -
02/12:00pm - - - - - E 15 17 8 9 - - -
02/11:30am - - - - - E 15 17 8 9 - - -
02/11:00am - - - - - ESE 15 17 8 9 - - -
02/10:30am - - - - - SE 15 17 8 9 - - -
02/10:00am - - - - - SSE 13 15 7 8 - - -
02/09:30am - - - - - S 11 15 6 8 - - -
02/09:00am - - - - - SSW 11 13 6 7 - - -
02/08:30am - - - - - SSW 13 15 7 8 - - -
02/08:00am - - - - - SW 15 19 8 10 - - -
02/07:30am - - - - - S 17 19 9 10 - - -
02/07:00am - - - - - SSW 9 11 5 6 - - -
02/06:30am - - - - - WSW 9 13 5 7 - - -
02/06:00am - - - - - SW 11 15 6 8 - - -
02/05:30am - - - - - SSW 13 15 7 8 - - -
02/05:00am - - - - - WSW 17 20 9 11 - - -
02/04:30am - - - - - W 17 20 9 11 - - -
02/04:00am - - - - - W 19 22 10 12 - - -
02/03:30am - - - - - W 17 19 9 10 - - -
02/03:00am - - - - - WNW 17 20 9 11 - - -
02/02:30am - - - - - NW 13 17 7 9 - - -
02/02:00am - - - - - WNW 11 13 6 7 - - -
02/01:30am - - - - - WSW 11 13 6 7 - - -
02/01:00am - - - - - WSW 11 13 6 7 - - -
02/12:30am - - - - - WSW 13 13 7 7 - - -
02/12:00am - - - - - WSW 13 15 7 8 - - -
 
Date/Time
EST
Temp
°C
App
Temp
°C
Dew
Point
Rel
Hum
%
Delta-T
°C
Wind Press
QNH
hPa
Press
MSL
hPa
Rain
since 9 am
mm
Dir
 
Spd
km/h
Gust
km/h
Spd
kts
Gust
kts
01/11:30pm - - - - - WNW 11 13 6 7 - - -
01/11:00pm - - - - - W 9 13 5 7 - - -
01/10:30pm - - - - - WNW 11 11 6 6 - - -
01/10:00pm - - - - - WNW 9 11 5 6 - - -
01/09:30pm - - - - - NW 9 11 5 6 - - -
01/09:00pm - - - - - NNE 9 11 5 6 - - -
01/08:30pm - - - - - NE 11 13 6 7 - - -
01/08:00pm - - - - - NNE 11 13 6 7 - - -

Other Formats:

Comma delimited format used in spreadsheet applications
http://www.bom.gov.au/fwo/IDQ60801/IDQ60801.99367.axf

JavaScript Object Notation format (JSON) in row-major order
http://www.bom.gov.au/fwo/IDQ60801/IDQ60801.99367.json